Time;durP1;ratioP1;P1;durP2;ratioP2;P2;SDS_P1;SDS_P2;PMS_P1;PMS_P2;Temp;Humidity;BMP_temperature;BMP_pressure;BME280_temperature;BME280_humidity;BME280_pressure;Samples;Min_cycle;Max_cycle;Signal;HPM_P1;HPM_P2
2023/05/10 00:01:20;;;;;;;;;3.50;3.50;;;;;12.15;100.00;100385.56;5058226;28;45546;-73
2023/05/10 00:03:46;;;;;;;;;1.00;1.00;;;;;12.11;100.00;100388.38;5061496;27;45377;-71
2023/05/10 00:06:11;;;;;;;;;2.00;2.00;;;;;12.11;100.00;100396.28;5054369;28;45394;-73
2023/05/10 00:08:37;;;;;;;;;2.00;2.00;;;;;12.08;100.00;100393.78;5054843;28;45487;-74
2023/05/10 00:11:02;;;;;;;;;3.00;3.00;;;;;12.06;100.00;100393.00;5057368;28;45637;-71
2023/05/10 00:13:28;;;;;;;;;2.50;2.50;;;;;12.03;100.00;100393.16;5065000;28;45467;-71
2023/05/10 00:15:53;;;;;;;;;2.75;2.75;;;;;12.02;100.00;100395.88;5055204;28;49930;-71
2023/05/10 00:18:18;;;;;;;;;1.75;1.75;;;;;11.91;100.00;100399.84;5062698;28;45437;-73
2023/05/10 00:20:45;;;;;;;;;1.25;1.25;;;;;11.84;100.00;100399.31;5071355;27;45438;-73
2023/05/10 00:23:11;;;;;;;;;1.50;1.50;;;;;11.78;100.00;100396.97;5054210;28;46343;-72
2023/05/10 00:25:36;;;;;;;;;1.25;1.25;;;;;11.71;100.00;100399.97;5053898;28;45321;-74
2023/05/10 00:28:02;;;;;;;;;1.50;1.50;;;;;11.67;100.00;100396.63;5052298;28;55749;-74
2023/05/10 00:30:27;;;;;;;;;0.75;0.75;;;;;11.60;100.00;100395.19;5052867;28;45348;-75
2023/05/10 00:32:52;;;;;;;;;1.00;1.00;;;;;11.58;100.00;100397.91;5034219;28;47428;-73
2023/05/10 00:35:17;;;;;;;;;2.00;2.00;;;;;11.58;100.00;100402.31;5034139;28;45521;-75
2023/05/10 00:37:43;;;;;;;;;2.00;2.00;;;;;11.54;100.00;100391.09;5052760;28;45846;-74
2023/05/10 00:40:08;;;;;;;;;1.00;1.00;;;;;11.50;100.00;100394.78;5055013;28;45603;-77
2023/05/10 00:42:34;;;;;;;;;0.00;0.00;;;;;11.46;100.00;100404.59;5055086;28;45862;-71
2023/05/10 00:44:59;;;;;;;;;1.00;1.00;;;;;11.39;100.00;100400.56;5054539;28;46422;-74
2023/05/10 00:47:25;;;;;;;;;0.25;0.25;;;;;11.33;100.00;100398.19;5054609;28;45334;-73
2023/05/10 00:49:51;;;;;;;;;1.00;1.00;;;;;11.36;100.00;100408.59;5036608;28;45481;-71
2023/05/10 00:52:16;;;;;;;;;0.75;0.75;;;;;11.30;100.00;100415.00;5054680;28;46214;-72
2023/05/10 00:54:42;;;;;;;;;1.25;1.25;;;;;11.30;100.00;100404.47;5054357;28;45369;-71
2023/05/10 00:57:07;;;;;;;;;1.00;1.00;;;;;11.27;100.00;100404.63;5057041;28;45644;-70
2023/05/10 00:59:32;;;;;;;;;1.50;1.50;;;;;11.30;100.00;100414.16;5053418;28;45546;-73
2023/05/10 01:01:58;;;;;;;;;0.75;0.75;;;;;11.32;100.00;100420.19;5053124;28;45518;-70
2023/05/10 01:04:25;;;;;;;;;1.25;1.25;;;;;11.29;100.00;100417.69;5053604;28;45427;-73
2023/05/10 01:06:52;;;;;;;;;1.00;1.00;;;;;11.25;100.00;100409.09;5054467;28;45240;-73
2023/05/10 01:09:18;;;;;;;;;1.00;1.00;;;;;11.27;100.00;100409.00;5038032;28;45327;-73
2023/05/10 01:11:44;;;;;;;;;1.00;1.00;;;;;11.24;100.00;100416.13;5057841;28;45598;-73
2023/05/10 01:14:10;;;;;;;;;1.25;1.00;;;;;11.26;100.00;100421.34;5058124;28;45666;-74
2023/05/10 01:16:38;;;;;;;;;1.50;1.50;;;;;11.14;100.00;100404.31;5058113;28;45302;-72
2023/05/10 01:19:11;;;;;;;;;0.50;0.50;;;;;11.29;100.00;100420.34;5057956;28;45493;-73
2023/05/10 01:21:59;;;;;;;;;0.50;0.50;;;;;11.29;100.00;100412.44;5057750;28;45537;-72
2023/05/10 01:24:30;;;;;;;;;1.00;1.00;;;;;11.34;100.00;100413.06;5057114;28;45400;-74
2023/05/10 01:27:22;;;;;;;;;1.00;1.00;;;;;11.36;100.00;100406.81;5039379;28;45439;-75
2023/05/10 01:30:18;;;;;;;;;0.25;0.25;;;;;11.37;100.00;100411.16;5058044;28;45392;-73
2023/05/10 01:33:07;;;;;;;;;0.50;0.50;;;;;11.34;100.00;100416.56;5057610;28;46566;-73
2023/05/10 01:35:50;;;;;;;;;0.50;0.50;;;;;11.37;100.00;100419.06;5018099;28;45705;-73
2023/05/10 01:38:27;;;;;;;;;1.00;1.00;;;;;11.40;100.00;100420.69;5057472;28;45439;-73
2023/05/10 01:41:05;;;;;;;;;1.00;1.00;;;;;11.45;100.00;100418.69;5056909;28;45407;-72
2023/05/10 01:43:42;;;;;;;;;0.00;0.00;;;;;11.48;100.00;100412.44;5058199;28;45412;-75
2023/05/10 01:46:14;;;;;;;;;0.75;0.75;;;;;11.45;100.00;100413.44;5058433;28;45162;-73
2023/05/10 01:48:54;;;;;;;;;0.00;0.00;;;;;11.49;100.00;100427.31;5058364;28;45472;-74
2023/05/10 01:51:25;;;;;;;;;0.00;0.00;;;;;11.41;100.00;100419.75;5057737;28;45198;-73
2023/05/10 01:54:02;;;;;;;;;0.25;0.25;;;;;11.40;100.00;100421.56;5057678;28;46245;-73
2023/05/10 01:56:30;;;;;;;;;0.25;0.25;;;;;11.39;100.00;100419.84;5057244;28;45264;-72
2023/05/10 01:58:59;;;;;;;;;0.25;0.25;;;;;11.42;100.00;100416.22;5057562;28;45342;-71
2023/05/10 02:01:26;;;;;;;;;1.00;1.00;;;;;11.41;100.00;100419.75;5057556;28;45426;-73
2023/05/10 02:03:51;;;;;;;;;0.00;0.00;;;;;11.45;100.00;100426.59;5057104;28;45467;-72
2023/05/10 02:06:20;;;;;;;;;1.00;1.00;;;;;11.48;100.00;100426.47;5056302;28;58721;-75
2023/05/10 02:08:47;;;;;;;;;1.00;1.00;;;;;11.44;100.00;100422.25;5038632;28;45366;-71
2023/05/10 02:11:13;;;;;;;;;0.50;0.50;;;;;11.50;100.00;100429.88;5057176;28;45598;-72
2023/05/10 02:13:39;;;;;;;;;1.00;1.00;;;;;11.45;100.00;100437.13;5057012;28;45475;-72
2023/05/10 02:16:07;;;;;;;;;0.00;0.00;;;;;11.42;100.00;100439.06;5057160;28;45309;-73
2023/05/10 02:18:34;;;;;;;;;0.00;0.00;;;;;11.48;100.00;100438.78;5057317;28;45351;-72
2023/05/10 02:21:01;;;;;;;;;0.50;0.50;;;;;11.45;100.00;100442.41;5038726;28;45267;-72
2023/05/10 02:23:29;;;;;;;;;0.00;0.00;;;;;11.40;100.00;100433.84;5056783;28;45413;-72
2023/05/10 02:25:56;;;;;;;;;0.50;0.50;;;;;11.41;100.00;100430.31;5056673;28;46219;-71
2023/05/10 02:28:23;;;;;;;;;0.00;0.00;;;;;11.45;100.00;100423.13;5056468;28;45491;-73
2023/05/10 02:30:49;;;;;;;;;0.00;0.00;;;;;11.48;100.00;100439.63;5056688;28;45507;-72
2023/05/10 02:33:15;;;;;;;;;0.00;0.00;;;;;11.47;100.00;100430.00;5056623;28;46026;-70
2023/05/10 02:35:41;;;;;;;;;0.00;0.00;;;;;11.51;100.00;100434.22;5056791;28;45268;-73
2023/05/10 02:38:08;;;;;;;;;0.00;0.00;;;;;11.51;100.00;100436.84;5056694;28;45398;-72
2023/05/10 02:40:36;;;;;;;;;0.00;0.00;;;;;11.51;100.00;100439.47;5056676;28;45535;-72
2023/05/10 02:43:03;;;;;;;;;0.00;0.00;;;;;11.57;100.00;100438.34;5038214;28;47062;-73
2023/05/10 02:45:31;;;;;;;;;0.00;0.00;;;;;11.57;100.00;100437.50;5038141;28;45331;-75
2023/05/10 02:47:58;;;;;;;;;0.00;0.00;;;;;11.59;100.00;100431.25;5056544;28;45342;-74
2023/05/10 02:50:27;;;;;;;;;0.00;0.00;;;;;11.61;100.00;100433.78;5056786;28;45401;-74
2023/05/10 02:52:59;;;;;;;;;0.00;0.00;;;;;11.65;100.00;100438.84;5056316;28;45411;-74
2023/05/10 02:55:32;;;;;;;;;0.00;0.00;;;;;11.68;100.00;100435.22;5056364;28;45347;-73
2023/05/10 02:58:00;;;;;;;;;0.00;0.00;;;;;11.71;100.00;100427.19;5022287;28;45418;-73
2023/05/10 03:00:25;;;;;;;;;0.50;0.50;;;;;11.79;100.00;100430.31;5038190;28;45647;-71
2023/05/10 03:02:51;;;;;;;;;0.00;0.00;;;;;11.69;100.00;100411.44;5056132;28;45359;-71
2023/05/10 03:05:16;;;;;;;;;0.00;0.00;;;;;11.79;100.00;100419.75;5056115;28;45297;-73
2023/05/10 03:07:42;;;;;;;;;0.25;0.25;;;;;11.88;100.00;100423.72;5056572;28;45353;-73
2023/05/10 03:10:08;;;;;;;;;0.00;0.00;;;;;11.92;100.00;100427.91;5056816;28;45295;-74
2023/05/10 03:12:56;;;;;;;;;0.75;0.75;;;;;11.94;100.00;100423.41;5056030;28;45358;-74
2023/05/10 03:15:42;;;;;;;;;0.00;0.00;;;;;11.92;100.00;100417.38;5055689;28;45395;-74
2023/05/10 03:18:18;;;;;;;;;0.00;0.00;;;;;11.94;99.80;100422.59;5055974;28;45274;-73
2023/05/10 03:20:48;;;;;;;;;0.25;0.25;;;;;11.89;100.00;100406.13;5056735;28;45352;-72
2023/05/10 03:23:19;;;;;;;;;0.00;0.00;;;;;11.95;100.00;100417.22;5055849;28;45302;-74
2023/05/10 03:25:47;;;;;;;;;0.00;0.00;;;;;11.93;100.00;100413.81;5056177;28;45318;-74
2023/05/10 03:28:15;;;;;;;;;0.00;0.00;;;;;11.94;100.00;100427.84;5055996;28;45288;-74
2023/05/10 03:30:42;;;;;;;;;1.25;1.00;;;;;11.94;99.83;100420.78;5056237;28;45331;-73
2023/05/10 03:33:08;;;;;;;;;0.00;0.00;;;;;11.96;100.00;100416.28;5055562;28;46400;-74
2023/05/10 03:35:33;;;;;;;;;0.00;0.00;;;;;11.98;99.85;100427.63;5055789;28;45470;-72
2023/05/10 03:37:59;;;;;;;;;1.00;1.00;;;;;12.02;99.92;100424.88;5056259;28;45253;-72
2023/05/10 03:40:26;;;;;;;;;0.00;0.00;;;;;12.02;100.00;100425.72;5056085;28;45249;-73
2023/05/10 03:42:51;;;;;;;;;0.00;0.00;;;;;11.96;100.00;100413.66;5055559;28;45426;-71
2023/05/10 03:45:17;;;;;;;;;1.00;0.00;;;;;12.02;100.00;100415.19;5055477;28;45253;-72
2023/05/10 03:47:42;;;;;;;;;0.00;0.00;;;;;11.99;100.00;100424.06;5055949;28;45186;-74
2023/05/10 03:50:08;;;;;;;;;0.75;0.75;;;;;12.02;100.00;100425.72;5057011;28;45190;-75
2023/05/10 03:52:33;;;;;;;;;1.00;1.00;;;;;11.96;100.00;100413.66;5055553;28;46328;-73
2023/05/10 03:54:58;;;;;;;;;0.00;0.00;;;;;11.96;100.00;100418.09;5055566;28;45225;-73
2023/05/10 03:57:24;;;;;;;;;0.50;0.50;;;;;11.93;100.00;100419.06;5055008;28;45284;-73
2023/05/10 03:59:49;;;;;;;;;1.00;1.00;;;;;11.90;100.00;100423.66;5055886;28;45198;-72
2023/05/10 04:02:15;;;;;;;;;1.00;1.00;;;;;11.86;100.00;100412.41;5037370;28;48410;-72
2023/05/10 04:04:40;;;;;;;;;0.00;0.00;;;;;11.84;100.00;100411.63;5055007;28;48097;-72
2023/05/10 04:07:05;;;;;;;;;0.00;0.00;;;;;11.84;100.00;100414.25;5054977;28;45454;-71
2023/05/10 04:09:31;;;;;;;;;0.00;0.00;;;;;11.82;100.00;100416.97;5055169;28;45535;-74
2023/05/10 04:11:56;;;;;;;;;1.00;1.00;;;;;11.79;100.00;100409.22;5054875;28;46390;-72
2023/05/10 04:14:22;;;;;;;;;1.75;1.00;;;;;11.78;100.00;100404.88;5054722;28;45402;-72
2023/05/10 04:16:47;;;;;;;;;0.75;0.75;;;;;11.82;100.00;100403.81;5055203;28;45324;-72
2023/05/10 04:19:12;;;;;;;;;0.25;0.25;;;;;11.73;100.00;100392.84;5055124;28;45293;-70
2023/05/10 04:21:38;;;;;;;;;0.00;0.00;;;;;11.76;100.00;100401.47;5036461;28;46279;-72
2023/05/10 04:24:03;;;;;;;;;0.25;0.25;;;;;11.80;100.00;100408.28;5054803;28;45401;-73
2023/05/10 04:26:29;;;;;;;;;1.00;1.00;;;;;11.82;100.00;100411.72;5054707;28;45351;-73
2023/05/10 04:28:54;;;;;;;;;0.00;0.00;;;;;11.80;100.00;100408.28;5037461;28;45438;-72
2023/05/10 04:31:19;;;;;;;;;0.75;0.75;;;;;11.79;100.00;100398.69;5038045;28;45992;-72
2023/05/10 04:33:45;;;;;;;;;0.25;0.25;;;;;11.88;100.00;100393.88;5054056;28;45551;-72
2023/05/10 04:36:10;;;;;;;;;0.00;0.00;;;;;11.94;100.00;100404.97;5034928;28;45491;-71
2023/05/10 04:38:35;;;;;;;;;0.50;0.50;;;;;11.95;100.00;100406.69;5054826;28;45283;-71
2023/05/10 04:41:08;;;;;;;;;0.00;0.00;;;;;11.94;100.00;100394.44;5054330;28;45441;-74
2023/05/10 04:43:34;;;;;;;;;0.75;0.75;;;;;11.98;100.00;100403.88;5053452;28;45355;-70
2023/05/10 04:45:59;;;;;;;;;1.00;1.00;;;;;11.99;100.00;100404.75;5054671;28;45369;-71
2023/05/10 04:48:24;;;;;;;;;1.00;1.00;;;;;12.01;100.00;100402.06;5054449;28;45334;-72
2023/05/10 04:50:50;;;;;;;;;1.00;1.00;;;;;12.02;100.00;100412.56;5054306;28;53492;-73
2023/05/10 04:53:15;;;;;;;;;1.25;1.25;;;;;12.01;100.00;100396.78;5054004;28;54516;-73
2023/05/10 04:55:40;;;;;;;;;2.00;2.00;;;;;11.98;100.00;100395.16;5054546;28;45858;-72
2023/05/10 04:58:06;;;;;;;;;7.25;7.25;;;;;12.02;100.00;100401.13;5054669;28;45268;-73
2023/05/10 05:00:32;;;;;;;;;3.00;3.00;;;;;12.02;100.00;100395.88;5054138;28;45355;-75
2023/05/10 05:02:58;;;;;;;;;4.75;4.75;;;;;12.05;100.00;100390.44;5053999;28;45377;-74
2023/05/10 05:05:23;;;;;;;;;2.00;2.00;;;;;12.03;100.00;100394.94;5054696;28;45229;-73
2023/05/10 05:07:49;;;;;;;;;2.00;2.00;;;;;12.09;100.00;100410.44;5054523;28;45615;-73
2023/05/10 05:10:14;;;;;;;;;1.75;1.75;;;;;12.06;100.00;100411.47;5054041;28;45734;-72
2023/05/10 05:12:40;;;;;;;;;2.75;2.75;;;;;12.00;100.00;100406.50;5054039;28;45412;-73
2023/05/10 05:15:06;;;;;;;;;2.75;2.75;;;;;11.89;100.00;100400.88;5053962;28;45425;-73
2023/05/10 05:17:31;;;;;;;;;5.50;5.50;;;;;11.82;100.00;100393.25;5035966;28;45658;-74
2023/05/10 05:19:56;;;;;;;;;2.00;2.00;;;;;11.83;100.00;100399.38;5054106;28;45508;-73
2023/05/10 05:22:28;;;;;;;;;4.25;4.25;;;;;11.76;100.00;100388.28;5054388;28;48989;-75
2023/05/10 05:24:54;;;;;;;;;4.25;4.25;;;;;11.77;100.00;100389.13;5054309;28;45231;-74
2023/05/10 05:27:23;;;;;;;;;3.00;3.00;;;;;11.73;100.00;100395.47;5054170;28;45644;-72
2023/05/10 05:29:49;;;;;;;;;2.50;2.50;;;;;11.73;100.00;100406.00;5053834;28;45856;-72
2023/05/10 05:32:14;;;;;;;;;2.25;2.25;;;;;11.67;100.00;100407.19;5053630;28;45280;-71
2023/05/10 05:34:39;;;;;;;;;5.75;5.75;;;;;11.67;100.00;100408.00;5053238;28;51949;-72
2023/05/10 05:37:05;;;;;;;;;4.00;4.00;;;;;11.65;100.00;100409.88;5053268;28;48553;-72
2023/05/10 05:39:30;;;;;;;;;4.50;4.50;;;;;11.69;100.00;100410.59;5053050;28;56324;-72
2023/05/10 05:41:55;;;;;;;;;4.00;4.00;;;;;11.71;100.00;100407.88;5053510;28;60992;-72
2023/05/10 05:44:20;;;;;;;;;6.00;6.00;;;;;11.68;100.00;100416.78;5052298;28;45361;-72
2023/05/10 05:46:46;;;;;;;;;3.00;3.00;;;;;11.64;100.00;100410.78;5045749;28;45379;-72
2023/05/10 05:49:12;;;;;;;;;2.25;2.25;;;;;11.65;100.00;100411.63;5073847;28;45671;-74
2023/05/10 05:51:37;;;;;;;;;2.00;2.00;;;;;11.69;100.00;100426.41;5074340;28;45314;-72
2023/05/10 05:54:04;;;;;;;;;2.50;2.50;;;;;11.65;100.00;100420.41;5071981;28;45316;-73
2023/05/10 05:56:29;;;;;;;;;3.00;3.00;;;;;11.53;100.00;100399.91;5077122;28;45229;-73
2023/05/10 05:58:55;;;;;;;;;4.00;4.00;;;;;11.57;100.00;100405.88;5077325;27;46487;-72
2023/05/10 06:01:20;;;;;;;;;3.00;3.00;;;;;11.58;100.00;100403.19;5074633;28;47174;-73
2023/05/10 06:03:46;;;;;;;;;4.00;4.00;;;;;11.76;100.00;100435.72;5068543;28;45434;-72
2023/05/10 06:06:12;;;;;;;;;4.50;4.50;;;;;11.81;100.00;100431.09;5075801;28;45455;-73
2023/05/10 06:08:37;;;;;;;;;5.50;5.50;;;;;11.89;100.00;100430.69;5059759;28;46436;-72
2023/05/10 06:11:03;;;;;;;;;2.00;2.00;;;;;11.94;100.00;100426.06;5069030;27;45397;-74
2023/05/10 06:13:31;;;;;;;;;5.00;5.00;;;;;12.03;100.00;100431.84;5047220;28;45799;-74
2023/05/10 06:15:58;;;;;;;;;2.25;2.25;;;;;12.11;100.00;100424.41;5046792;28;46103;-72
2023/05/10 06:18:23;;;;;;;;;5.00;5.00;;;;;12.25;100.00;100424.59;5073971;27;46654;-71
2023/05/10 06:20:49;;;;;;;;;4.50;4.50;;;;;12.32;100.00;100419.88;5074674;27;45611;-74
2023/05/10 06:23:15;;;;;;;;;5.75;4.00;;;;;12.34;100.00;100433.84;5074467;28;45227;-75
2023/05/10 06:25:40;;;;;;;;;5.00;5.00;;;;;12.30;100.00;100426.16;5073305;28;45621;-74
2023/05/10 06:28:05;;;;;;;;;3.75;3.75;;;;;12.21;100.00;100428.34;5072966;27;55620;-73
2023/05/10 06:30:31;;;;;;;;;6.00;6.00;;;;;12.14;100.00;100429.53;5076113;27;45350;-74
2023/05/10 06:32:56;;;;;;;;;4.00;4.00;;;;;12.11;100.00;100438.47;5060204;28;45399;-75
2023/05/10 06:35:22;;;;;;;;;3.50;3.50;;;;;11.89;100.00;100406.97;5078896;27;45430;-75
2023/05/10 06:37:48;;;;;;;;;5.25;5.25;;;;;12.02;100.00;100435.41;5076954;27;46556;-73
2023/05/10 07:01:13;;;;;;;;;4.50;4.50;;;;;12.01;100.00;100442.47;5085362;27;45755;-77
2023/05/10 07:03:38;;;;;;;;;5.00;5.00;;;;;12.06;100.00;100442.25;5070238;27;45477;-73
2023/05/10 07:06:04;;;;;;;;;5.25;5.25;;;;;12.17;100.00;100460.19;5069921;27;45356;-72
2023/05/10 07:08:31;;;;;;;;;4.50;4.50;;;;;12.23;100.00;100459.88;5069054;28;45268;-71
2023/05/10 07:11:04;;;;;;;;;4.50;4.50;;;;;12.26;100.00;100455.31;5071533;28;45703;-72
2023/05/10 07:13:31;;;;;;;;;4.25;4.25;;;;;12.33;100.00;100460.28;5070983;27;45529;-74
2023/05/10 07:15:56;;;;;;;;;5.00;5.00;;;;;12.39;100.00;100467.91;5069813;27;45407;-72
2023/05/10 07:18:22;;;;;;;;;5.00;5.00;;;;;12.38;100.00;100456.47;5073909;27;45443;-74
2023/05/10 07:20:47;;;;;;;;;6.00;6.00;;;;;12.42;100.00;100460.69;5066825;28;47029;-79
2023/05/10 07:23:12;;;;;;;;;5.50;5.50;;;;;12.49;100.00;100463.00;5070232;27;45424;-73
2023/05/10 07:25:38;;;;;;;;;6.25;5.75;;;;;12.55;100.00;100473.25;5070855;28;45406;-77
2023/05/10 07:28:04;;;;;;;;;4.00;4.00;;;;;12.54;100.00;100461.00;5070666;28;45410;-76
2023/05/10 07:30:29;;;;;;;;;5.00;5.00;;;;;12.58;100.00;100467.81;5069381;27;46411;-73
2023/05/10 07:32:55;;;;;;;;;7.00;7.00;;;;;12.52;100.00;100462.84;5066815;28;45409;-72
2023/05/10 07:35:20;;;;;;;;;6.75;6.75;;;;;12.45;100.00;100472.88;5070628;27;45330;-75
2023/05/10 07:37:45;;;;;;;;;7.00;7.00;;;;;12.27;100.00;100450.88;5086787;27;45457;-73
2023/05/10 07:40:11;;;;;;;;;9.00;9.00;;;;;12.31;100.00;100468.28;5070602;27;46163;-70
2023/05/10 07:42:36;;;;;;;;;9.00;9.00;;;;;12.21;100.00;100469.66;5070793;27;45258;-71
2023/05/10 07:45:02;;;;;;;;;7.50;7.50;;;;;12.19;100.00;100471.50;5072911;28;45327;-78
2023/05/10 07:47:27;;;;;;;;;7.25;7.25;;;;;12.07;100.00;100471.19;5070917;28;45334;-77
2023/05/10 07:49:53;;;;;;;;;9.50;9.50;;;;;12.02;100.00;100470.56;5070533;27;45348;-75
2023/05/10 07:52:18;;;;;;;;;11.50;9.50;;;;;11.99;100.00;100475.94;5071069;27;45341;-70
2023/05/10 07:54:44;;;;;;;;;10.75;10.75;;;;;11.92;100.00;100467.44;5069579;28;45259;-72
2023/05/10 07:57:09;;;;;;;;;7.75;7.75;;;;;11.88;100.00;100457.97;5070580;28;45582;-75
2023/05/10 07:59:35;;;;;;;;;7.00;7.00;;;;;11.95;100.00;100472.56;5070331;27;46572;-78
2023/05/10 08:02:00;;;;;;;;;7.75;7.75;;;;;11.99;100.00;100476.78;5057554;27;45284;-77
2023/05/10 08:04:26;;;;;;;;;7.00;7.00;;;;;11.99;100.00;100475.94;5057056;28;45701;-73
2023/05/10 08:06:51;;;;;;;;;6.25;6.25;;;;;11.97;100.00;100477.78;5057774;28;45275;-72
2023/05/10 08:09:17;;;;;;;;;8.00;7.00;;;;;11.94;100.00;100481.41;5073047;28;46950;-79
2023/05/10 08:11:42;;;;;;;;;10.00;9.00;;;;;11.89;100.00;100475.50;5057625;28;45383;-70
2023/05/10 08:14:08;;;;;;;;;11.00;10.50;;;;;11.86;100.00;100470.38;5057221;28;45388;-74
2023/05/10 08:16:34;;;;;;;;;10.75;10.75;;;;;11.86;100.00;100480.91;5057193;28;45340;-78
2023/05/10 08:18:59;;;;;;;;;11.00;11.00;;;;;11.74;100.00;100474.47;5057962;28;46431;-76
2023/05/10 08:21:25;;;;;;;;;8.25;8.25;;;;;11.67;100.00;100471.25;5056979;28;45432;-74
2023/05/10 08:23:51;;;;;;;;;9.50;9.50;;;;;11.69;100.00;100479.94;5057254;28;45454;-73
2023/05/10 08:26:16;;;;;;;;;10.00;10.00;;;;;11.70;100.00;100496.63;5056594;28;45497;-73
2023/05/10 08:28:42;;;;;;;;;11.25;11.25;;;;;11.68;100.00;100494.03;5056288;28;45334;-75
2023/05/10 08:31:07;;;;;;;;;10.00;10.00;;;;;11.69;100.00;100490.47;5056717;28;45273;-72
2023/05/10 08:33:33;;;;;;;;;10.50;10.50;;;;;11.78;100.00;100499.75;5056452;28;48035;-75
2023/05/10 08:35:58;;;;;;;;;11.25;10.50;;;;;11.83;100.00;100497.75;5057029;28;45631;-76
2023/05/10 08:38:24;;;;;;;;;12.50;12.50;;;;;11.88;100.00;100497.53;5056202;28;46224;-74
2023/05/10 08:40:56;;;;;;;;;6.50;6.50;;;;;11.96;100.00;100507.72;5057113;28;45390;-72
2023/05/10 08:43:26;;;;;;;;;13.50;13.50;;;;;11.99;100.00;100513.69;5056983;28;45333;-73
2023/05/10 08:45:53;;;;;;;;;14.00;14.00;;;;;12.01;100.00;100520.69;5056731;28;45611;-72
2023/05/10 08:48:22;;;;;;;;;12.50;12.50;;;;;12.03;100.00;100522.34;5056337;28;48068;-75
2023/05/10 08:50:52;;;;;;;;;12.00;11.25;;;;;12.06;100.00;100521.34;5057820;28;45207;-71
2023/05/10 08:53:19;;;;;;;;;9.50;9.50;;;;;12.12;100.00;100526.31;5055095;28;45463;-75
2023/05/10 08:55:45;;;;;;;;;12.25;12.25;;;;;12.13;100.00;100523.63;5055832;28;45525;-74
2023/05/10 08:58:11;;;;;;;;;9.75;9.75;;;;;12.23;100.00;100534.59;5061364;28;45380;-70
2023/05/10 09:00:39;;;;;;;;;10.50;10.50;;;;;12.29;100.00;100525.50;5062275;28;45391;-74
2023/05/10 09:03:05;;;;;;;;;9.50;9.50;;;;;12.40;100.00;100539.03;5063160;28;45237;-72
2023/05/10 09:05:31;;;;;;;;;10.50;10.50;;;;;12.46;100.00;100540.53;5056887;28;45215;-69
2023/05/10 09:07:58;;;;;;;;;13.25;12.25;;;;;12.55;100.00;100539.22;5055622;28;46299;-71
2023/05/10 09:10:27;;;;;;;;;11.75;11.75;;;;;12.69;100.00;100547.28;5055772;28;45302;-75
2023/05/10 09:12:55;;;;;;;;;12.50;12.50;;;;;12.74;100.00;100543.59;5070616;28;45360;-70
2023/05/10 09:15:21;;;;;;;;;11.00;11.00;;;;;12.78;100.00;100543.34;5056079;28;45588;-68
2023/05/10 09:17:47;;;;;;;;;13.00;12.50;;;;;12.78;100.00;100546.00;5055373;28;46264;-71
2023/05/10 09:20:12;;;;;;;;;13.00;13.00;;;;;12.72;100.00;100551.59;5055506;28;45378;-72
2023/05/10 09:22:38;;;;;;;;;13.75;12.50;;;;;12.71;100.00;100569.19;5056097;28;45478;-70
2023/05/10 09:25:11;;;;;;;;;10.25;10.25;;;;;12.65;100.00;100564.22;5056255;28;45443;-72
2023/05/10 09:27:38;;;;;;;;;13.25;10.25;;;;;12.59;100.00;100569.78;5054105;28;46796;-71
2023/05/10 09:30:05;;;;;;;;;13.00;13.00;;;;;12.57;100.00;100574.28;5056324;28;45443;-71
2023/05/10 09:32:37;;;;;;;;;14.25;14.25;;;;;12.63;100.00;100579.28;5056005;28;45162;-71
2023/05/10 09:35:14;;;;;;;;;17.00;17.00;;;;;12.74;100.00;100578.75;5057177;28;45381;-75
2023/05/10 09:37:42;;;;;;;;;13.00;13.00;;;;;12.75;100.00;100583.09;5056750;28;45914;-71
2023/05/10 09:40:11;;;;;;;;;17.00;16.50;;;;;12.76;100.00;100582.16;5055440;28;45443;-73
2023/05/10 09:42:37;;;;;;;;;14.75;14.75;;;;;12.82;100.00;100588.94;5055782;28;45390;-73
2023/05/10 09:45:04;;;;;;;;;16.00;14.50;;;;;12.86;100.00;100591.34;5056102;28;45403;-74
2023/05/10 09:47:31;;;;;;;;;10.25;10.25;;;;;12.89;100.00;100585.06;5055501;28;45394;-71
2023/05/10 09:50:02;;;;;;;;;17.75;16.00;;;;;13.00;100.00;100595.94;5056103;28;45469;-72
2023/05/10 09:52:28;;;;;;;;;13.75;12.50;;;;;13.00;100.00;100585.38;5055902;28;45724;-71
2023/05/10 09:54:54;;;;;;;;;13.75;13.50;;;;;12.96;100.00;100599.66;5056118;28;45405;-75
2023/05/10 09:57:25;;;;;;;;;9.50;9.50;;;;;13.02;100.00;100592.38;5055260;28;45602;-77
2023/05/10 09:59:53;;;;;;;;;8.25;8.25;;;;;13.02;100.00;100595.00;5053485;28;45291;-75
2023/05/10 10:02:27;;;;;;;;;12.50;12.50;;;;;13.01;100.00;100591.50;5055152;28;45443;-69
2023/05/10 10:04:53;;;;;;;;;18.00;18.00;;;;;13.05;100.00;100606.25;5056013;28;45342;-72
2023/05/10 10:07:23;;;;;;;;;15.25;11.75;;;;;13.03;100.00;100604.66;5054610;28;45338;-72
2023/05/10 10:09:49;;;;;;;;;12.00;12.00;;;;;12.99;100.00;100598.66;5053398;28;46209;-75
2023/05/10 10:12:15;;;;;;;;;12.25;12.25;;;;;13.01;100.00;100602.06;5053638;28;45385;-75
2023/05/10 10:14:41;;;;;;;;;12.50;12.50;;;;;13.08;100.00;100607.91;5055041;28;45385;-74
2023/05/10 10:17:07;;;;;;;;;16.50;15.75;;;;;13.12;100.00;100605.00;5054972;28;46551;-75
2023/05/10 10:19:36;;;;;;;;;19.00;18.25;;;;;13.14;100.00;100600.50;5054588;28;45352;-74
2023/05/10 10:22:01;;;;;;;;;16.00;16.00;;;;;13.19;100.00;100602.94;5053410;28;45406;-72
2023/05/10 10:24:27;;;;;;;;;15.25;14.75;;;;;13.18;100.00;100603.00;5054773;28;45539;-75
2023/05/10 10:26:59;;;;;;;;;13.75;13.75;;;;;13.13;100.00;100603.25;5054212;28;47211;-76
2023/05/10 10:29:39;;;;;;;;;15.00;14.50;;;;;13.19;100.00;100599.41;5055012;28;45363;-74
2023/05/10 10:32:20;;;;;;;;;18.25;16.75;;;;;13.27;100.00;100592.81;5055106;28;45282;-76
2023/05/10 10:34:46;;;;;;;;;14.75;14.00;;;;;13.37;100.00;100598.50;5055324;28;45290;-76
2023/05/10 10:37:11;;;;;;;;;15.50;13.00;;;;;13.45;100.00;100574.34;5054107;28;45461;-70
2023/05/10 10:39:37;;;;;;;;;18.25;18.25;;;;;13.68;100.00;100593.41;5053509;28;46079;-72
2023/05/10 10:42:04;;;;;;;;;13.00;12.75;;;;;13.83;100.00;100587.34;5054622;28;45311;-70
2023/05/10 10:44:36;;;;;;;;;15.25;14.50;;;;;14.00;100.00;100588.22;5058677;28;45228;-73
2023/05/10 10:47:23;;;;;;;;;20.25;18.00;;;;;14.10;100.00;100591.19;5058780;28;46266;-75
2023/05/10 10:49:51;;;;;;;;;13.75;13.75;;;;;14.20;100.00;100594.19;5059642;28;45231;-74
2023/05/10 10:52:32;;;;;;;;;13.25;13.25;;;;;14.32;100.00;100591.72;5053927;28;45431;-75
2023/05/10 10:55:09;;;;;;;;;15.75;15.25;;;;;14.46;100.00;100590.94;5055094;28;45450;-72
2023/05/10 10:57:40;;;;;;;;;14.50;14.50;;;;;14.57;100.00;100598.28;5054024;28;45418;-71
2023/05/10 11:00:18;;;;;;;;;15.00;14.25;;;;;14.64;100.00;100600.56;5053454;28;45476;-71
2023/05/10 11:02:45;;;;;;;;;12.50;12.50;;;;;14.69;100.00;100603.81;5052160;28;45268;-75
2023/05/10 11:05:32;;;;;;;;;10.00;10.00;;;;;14.71;100.00;100592.22;5054485;28;45240;-74
2023/05/10 11:07:59;;;;;;;;;12.25;12.25;;;;;14.79;100.00;100604.16;5054277;28;46716;-73
2023/05/10 11:10:26;;;;;;;;;16.25;16.25;;;;;14.88;100.00;100598.34;5053862;28;45357;-70
2023/05/10 11:12:51;;;;;;;;;11.25;11.25;;;;;14.95;100.00;100599.69;5053519;28;45275;-71
2023/05/10 11:15:17;;;;;;;;;12.00;12.00;;;;;15.03;100.00;100593.94;5056164;28;45307;-73
2023/05/10 11:17:42;;;;;;;;;10.00;9.50;;;;;15.04;100.00;100596.50;5055305;28;46602;-74
2023/05/10 11:20:09;;;;;;;;;10.50;10.50;;;;;15.17;100.00;100601.09;5053824;28;45487;-74
2023/05/10 11:22:51;;;;;;;;;11.50;11.50;;;;;15.23;100.00;100600.72;5055234;28;45314;-77
2023/05/10 11:25:17;;;;;;;;;8.50;8.50;;;;;15.24;100.00;100589.16;5053939;28;45350;-75
2023/05/10 11:27:42;;;;;;;;;12.75;12.50;;;;;15.37;100.00;100599.88;5054266;28;46494;-74
2023/05/10 11:30:10;;;;;;;;;11.25;11.25;;;;;15.46;100.00;100598.47;5054681;28;45366;-71
2023/05/10 11:32:39;;;;;;;;;10.50;10.00;;;;;15.54;100.00;100598.88;5054660;28;45304;-73
2023/05/10 11:35:11;;;;;;;;;7.75;7.50;;;;;15.56;100.00;100596.97;5053403;28;45512;-72